createdAt,value
2019-02-11T00:01:39.918Z,0.90
2019-02-11T00:04:09.090Z,1.03
2019-02-11T00:06:38.028Z,0.90
2019-02-11T00:09:09.245Z,1.10
2019-02-11T00:11:38.284Z,1.10
2019-02-11T00:14:07.284Z,1.20
2019-02-11T00:16:36.375Z,1.27
2019-02-11T00:19:05.555Z,1.30
2019-02-11T00:21:34.504Z,1.13
2019-02-11T00:24:03.673Z,1.30
2019-02-11T00:26:32.537Z,0.97
2019-02-11T00:29:01.389Z,1.10
2019-02-11T00:31:30.381Z,1.73
2019-02-11T00:33:59.588Z,0.77
2019-02-11T00:36:28.775Z,0.90
2019-02-11T00:38:57.725Z,1.83
2019-02-11T00:41:26.945Z,1.90
2019-02-11T00:43:55.801Z,0.80
2019-02-11T00:46:25.027Z,1.30
2019-02-11T00:48:53.959Z,0.90
2019-02-11T00:51:22.921Z,0.80
2019-02-11T00:53:52.073Z,0.60
2019-02-11T00:56:21.082Z,0.80
2019-02-11T00:58:50.007Z,0.60
2019-02-11T01:01:18.956Z,0.70
2019-02-11T01:03:47.998Z,0.40
2019-02-11T01:06:17.005Z,0.70
2019-02-11T01:08:45.932Z,0.50
2019-02-11T01:11:14.825Z,0.63
2019-02-11T01:13:43.688Z,0.60
2019-02-11T01:16:12.706Z,0.80
2019-02-11T01:18:41.656Z,0.93
2019-02-11T01:21:10.670Z,0.50
2019-02-11T01:23:42.089Z,0.60
2019-02-11T01:26:10.996Z,0.73
2019-02-11T01:28:39.921Z,0.87
2019-02-11T01:31:08.790Z,0.50
2019-02-11T01:33:39.374Z,0.53
2019-02-11T01:36:08.649Z,1.90
2019-02-11T01:38:37.577Z,0.80
2019-02-11T01:41:06.525Z,0.60
2019-02-11T01:43:36.311Z,0.70
2019-02-11T01:46:05.781Z,0.50
2019-02-11T01:48:34.701Z,0.60
2019-02-11T01:51:04.303Z,0.60
2019-02-11T01:53:33.153Z,0.40
2019-02-11T01:56:02.375Z,0.50
2019-02-11T01:58:31.302Z,0.50
2019-02-11T02:01:00.228Z,0.53
2019-02-11T02:03:29.146Z,0.50
2019-02-11T02:05:58.087Z,0.50
2019-02-11T02:08:27.077Z,0.53
2019-02-11T02:10:57.114Z,0.50
2019-02-11T02:13:26.217Z,0.60
2019-02-11T02:15:55.110Z,1.60
2019-02-11T02:18:24.066Z,0.90
2019-02-11T02:20:53.007Z,0.50
2019-02-11T02:23:21.997Z,0.50
2019-02-11T02:25:50.881Z,0.50
2019-02-11T02:28:19.841Z,0.47
2019-02-11T02:30:49.228Z,0.50
2019-02-11T02:33:18.323Z,0.40
2019-02-11T02:35:47.275Z,0.40
2019-02-11T02:38:16.263Z,0.60
2019-02-11T02:40:45.211Z,0.53
2019-02-11T02:43:14.143Z,0.57
2019-02-11T02:45:43.087Z,1.57
2019-02-11T02:48:12.006Z,0.60
2019-02-11T02:50:40.968Z,0.80
2019-02-11T02:53:09.954Z,0.70
2019-02-11T02:55:38.877Z,0.50
2019-02-11T02:58:07.973Z,0.60
2019-02-11T03:00:37.076Z,0.60
2019-02-11T03:03:06.587Z,0.77
2019-02-11T03:05:35.569Z,0.50
2019-02-11T03:08:04.686Z,0.60
2019-02-11T03:10:34.587Z,0.57
2019-02-11T03:13:03.818Z,1.23
2019-02-11T03:15:33.328Z,0.60
2019-02-11T03:18:02.272Z,0.70
2019-02-11T03:20:31.182Z,0.70
2019-02-11T03:23:00.073Z,0.80
2019-02-11T03:25:29.232Z,0.90
2019-02-11T03:27:58.194Z,1.00
2019-02-11T03:30:27.130Z,0.77
2019-02-11T03:32:56.107Z,2.00
2019-02-11T03:35:25.347Z,2.13
2019-02-11T03:37:54.294Z,1.50
2019-02-11T03:40:23.223Z,3.37
2019-02-11T03:42:52.259Z,2.67
2019-02-11T03:45:21.438Z,2.43
2019-02-11T03:47:50.507Z,2.60
2019-02-11T03:50:19.878Z,2.53
2019-02-11T03:52:48.831Z,3.63
2019-02-11T03:55:17.746Z,4.70
2019-02-11T03:57:46.992Z,7.97
2019-02-11T04:00:16.056Z,6.90
2019-02-11T04:02:45.031Z,7.53
2019-02-11T04:05:14.038Z,12.40
2019-02-11T04:07:42.973Z,10.27
2019-02-11T04:10:12.067Z,12.33
2019-02-11T04:12:41.050Z,8.97
2019-02-11T04:15:10.129Z,16.00
2019-02-11T04:17:39.194Z,11.00
2019-02-11T04:20:08.995Z,15.00
2019-02-11T04:22:37.995Z,11.27
2019-02-11T04:25:07.082Z,12.40
2019-02-11T04:27:36.308Z,10.70
2019-02-11T04:30:05.560Z,8.27
2019-02-11T04:32:34.519Z,9.90
2019-02-11T04:35:03.579Z,9.90
2019-02-11T04:37:32.568Z,13.43
2019-02-11T04:40:01.512Z,10.97
2019-02-11T04:42:30.734Z,7.00
2019-02-11T04:44:59.667Z,13.97
2019-02-11T04:47:28.556Z,9.87
2019-02-11T04:49:57.506Z,9.00
2019-02-11T04:52:26.514Z,8.17
2019-02-11T04:54:55.475Z,6.57
2019-02-11T04:57:24.431Z,8.70
2019-02-11T04:59:53.358Z,12.50
2019-02-11T05:02:22.372Z,7.53
2019-02-11T05:04:51.304Z,6.33
2019-02-11T05:07:20.239Z,9.03
2019-02-11T05:09:49.188Z,9.57
2019-02-11T05:12:18.149Z,7.87
2019-02-11T05:14:47.150Z,6.80
2019-02-11T05:17:16.423Z,4.27
2019-02-11T05:19:45.371Z,6.90
2019-02-11T05:22:14.331Z,6.53
2019-02-11T05:24:43.265Z,11.87
2019-02-11T05:27:12.206Z,7.20
2019-02-11T05:29:41.139Z,6.30
2019-02-11T05:32:10.096Z,8.00
2019-02-11T05:34:39.042Z,7.37
2019-02-11T05:37:07.993Z,7.83
2019-02-11T05:39:37.002Z,5.97
2019-02-11T05:42:05.975Z,9.33
2019-02-11T05:44:35.155Z,4.27
2019-02-11T05:47:04.344Z,6.37
2019-02-11T05:49:33.351Z,7.40
2019-02-11T05:52:02.449Z,9.17
2019-02-11T05:54:31.513Z,9.37
2019-02-11T05:57:00.473Z,6.77
2019-02-11T05:59:29.511Z,7.70
2019-02-11T06:01:58.764Z,6.83
2019-02-11T06:04:27.718Z,8.90
2019-02-11T06:06:56.640Z,6.20
2019-02-11T06:09:25.822Z,9.27
2019-02-11T06:11:54.723Z,9.50
2019-02-11T06:14:23.703Z,9.33
2019-02-11T06:16:52.627Z,9.87
2019-02-11T06:19:21.720Z,10.00
2019-02-11T06:21:50.633Z,8.07
2019-02-11T06:24:19.571Z,8.30
2019-02-11T06:26:50.562Z,9.90
2019-02-11T06:29:19.763Z,7.97
2019-02-11T06:31:50.217Z,9.70
2019-02-11T06:34:20.336Z,8.23
2019-02-11T06:36:49.280Z,11.77
2019-02-11T06:39:18.283Z,8.27
2019-02-11T06:41:47.291Z,7.90
2019-02-11T06:44:16.339Z,6.90
2019-02-11T06:46:45.277Z,10.63
2019-02-11T06:49:14.299Z,8.27
2019-02-11T06:51:43.326Z,11.07
2019-02-11T06:54:12.360Z,12.10
2019-02-11T06:56:41.608Z,6.17
2019-02-11T06:59:10.796Z,9.57
2019-02-11T07:01:39.760Z,7.73
2019-02-11T07:04:08.714Z,5.80
2019-02-11T07:06:37.657Z,8.77
2019-02-11T07:09:06.803Z,4.87
2019-02-11T07:11:35.784Z,7.57
2019-02-11T07:14:04.867Z,8.77
2019-02-11T07:16:33.803Z,10.97
2019-02-11T07:19:02.854Z,5.73
2019-02-11T07:21:31.823Z,9.87
2019-02-11T07:24:01.821Z,7.47
2019-02-11T07:26:30.991Z,10.57
2019-02-11T07:28:59.986Z,6.57
2019-02-11T07:31:28.906Z,8.23
2019-02-11T07:33:57.916Z,7.80
2019-02-11T07:36:26.834Z,9.37
2019-02-11T07:38:55.786Z,8.17
2019-02-11T07:41:34.407Z,6.77
2019-02-11T07:44:10.518Z,6.07
2019-02-11T07:46:44.802Z,9.77
2019-02-11T07:49:14.075Z,8.50
2019-02-11T07:51:42.999Z,7.23
2019-02-11T07:54:12.325Z,10.70
2019-02-11T07:56:41.703Z,9.80
2019-02-11T07:59:10.739Z,5.13
2019-02-11T08:01:39.702Z,6.27
2019-02-11T08:04:09.086Z,8.40
2019-02-11T08:06:38.018Z,6.03
2019-02-11T08:09:09.916Z,10.33
2019-02-11T08:11:38.850Z,5.03
2019-02-11T08:14:07.827Z,4.77
2019-02-11T08:16:36.753Z,4.47
2019-02-11T08:19:05.784Z,4.40
2019-02-11T08:21:34.958Z,5.10
2019-02-11T08:24:03.863Z,3.57
2019-02-11T08:26:33.107Z,3.43
2019-02-11T08:29:02.319Z,5.37
2019-02-11T08:31:31.554Z,6.27
2019-02-11T08:34:00.594Z,3.60
2019-02-11T08:36:29.591Z,7.97
2019-02-11T08:38:58.823Z,4.37
2019-02-11T08:41:27.759Z,6.07
2019-02-11T08:43:58.189Z,7.30
2019-02-11T08:46:27.616Z,6.37
2019-02-11T08:48:56.631Z,5.67
2019-02-11T08:51:26.183Z,7.57
2019-02-11T08:53:56.180Z,7.10
2019-02-11T08:56:25.150Z,5.23
2019-02-11T08:58:54.085Z,6.97
2019-02-11T09:01:23.030Z,6.77
2019-02-11T09:03:52.206Z,14.03
2019-02-11T09:06:21.562Z,9.90
2019-02-11T09:08:51.067Z,5.30
2019-02-11T09:11:20.102Z,10.57
2019-02-11T09:13:49.035Z,9.13
2019-02-11T09:16:18.010Z,6.73
2019-02-11T09:18:47.023Z,10.47
2019-02-11T09:21:16.054Z,11.03
2019-02-11T09:23:45.116Z,10.53
2019-02-11T09:26:14.407Z,9.53
2019-02-11T09:28:43.342Z,7.90
2019-02-11T09:31:12.488Z,9.70
2019-02-11T09:33:42.492Z,9.67
2019-02-11T09:36:11.542Z,8.00
2019-02-11T09:38:40.490Z,8.63
2019-02-11T09:41:09.559Z,9.50
2019-02-11T09:43:38.523Z,9.90
2019-02-11T09:46:09.563Z,11.63
2019-02-11T09:48:38.575Z,11.10
2019-02-11T09:51:07.939Z,11.90
2019-02-11T09:53:37.470Z,9.17
2019-02-11T09:56:07.327Z,7.47
2019-02-11T09:58:38.109Z,7.77
2019-02-11T10:01:07.376Z,9.67
2019-02-11T10:03:36.288Z,8.97
2019-02-11T10:06:05.335Z,14.27
2019-02-11T10:08:34.506Z,12.30
2019-02-11T10:11:03.859Z,15.40
2019-02-11T10:13:32.873Z,11.63
2019-02-11T10:16:02.141Z,12.07
2019-02-11T10:18:31.086Z,10.80
2019-02-11T10:21:00.243Z,11.40
2019-02-11T10:23:29.178Z,12.83
2019-02-11T10:25:58.827Z,7.67
2019-02-11T10:28:27.871Z,9.40
2019-02-11T10:30:57.363Z,8.60
2019-02-11T10:33:26.507Z,11.43
2019-02-11T10:35:55.639Z,13.97
2019-02-11T10:38:24.660Z,8.97
2019-02-11T10:40:55.218Z,12.10
2019-02-11T10:43:24.228Z,7.33
2019-02-11T10:45:53.170Z,9.17
2019-02-11T10:48:22.162Z,11.30
2019-02-11T10:50:51.125Z,11.70
2019-02-11T10:53:20.867Z,12.10
2019-02-11T10:55:49.835Z,11.90
2019-02-11T10:58:18.843Z,11.97
2019-02-11T11:00:47.867Z,11.10
2019-02-11T11:03:16.943Z,8.40
2019-02-11T11:05:46.239Z,9.60
2019-02-11T11:08:15.315Z,8.33
2019-02-11T11:10:44.302Z,11.33
2019-02-11T11:13:13.388Z,10.40
2019-02-11T11:15:42.412Z,13.83
2019-02-11T11:18:11.748Z,8.23
2019-02-11T11:20:40.782Z,7.27
2019-02-11T11:23:09.803Z,13.73
2019-02-11T11:25:39.215Z,13.77
2019-02-11T11:28:08.278Z,11.83
2019-02-11T11:30:38.794Z,13.23
2019-02-11T11:33:07.910Z,8.67
2019-02-11T11:35:36.976Z,12.50
2019-02-11T11:38:05.944Z,15.27
2019-02-11T11:40:34.986Z,14.73
2019-02-11T11:43:04.054Z,11.50
2019-02-11T11:45:33.152Z,11.50
2019-02-11T11:48:02.231Z,11.87
2019-02-11T11:50:31.207Z,14.17
2019-02-11T11:53:00.086Z,12.10
2019-02-11T11:55:29.066Z,9.53
2019-02-11T11:57:58.066Z,11.60
2019-02-11T12:00:27.926Z,11.70
2019-02-11T12:03:02.778Z,13.50
2019-02-11T12:05:28.892Z,13.07
2019-02-11T12:07:57.973Z,9.90
2019-02-11T12:10:27.073Z,12.47
2019-02-11T12:12:56.051Z,14.90
2019-02-11T12:15:25.765Z,17.07
2019-02-11T12:17:56.968Z,12.17
2019-02-11T12:20:25.898Z,12.53
2019-02-11T12:22:54.955Z,8.67
2019-02-11T12:25:24.005Z,13.53
2019-02-11T12:27:53.026Z,11.43
2019-02-11T12:30:24.493Z,12.60
2019-02-11T12:32:55.506Z,10.83
2019-02-11T12:35:24.354Z,15.10
2019-02-11T12:37:53.352Z,12.07
2019-02-11T12:40:22.318Z,8.87
2019-02-11T12:42:53.169Z,13.97
2019-02-11T12:45:22.606Z,12.20
2019-02-11T12:47:51.818Z,11.63
2019-02-11T12:50:20.838Z,14.00
2019-02-11T12:52:49.957Z,14.20
2019-02-11T12:55:18.950Z,11.20
2019-02-11T12:57:48.632Z,9.40
2019-02-11T13:00:19.679Z,11.10
2019-02-11T13:02:49.355Z,14.63
2019-02-11T13:05:22.958Z,14.50
2019-02-11T13:07:49.847Z,13.27
2019-02-11T13:10:20.149Z,15.40
2019-02-11T13:12:49.452Z,15.17
2019-02-11T13:15:52.860Z,15.70
2019-02-11T13:17:50.050Z,16.47
2019-02-11T13:20:19.917Z,16.17
2019-02-11T13:22:49.124Z,13.43
2019-02-11T13:25:18.722Z,12.50
2019-02-11T13:27:47.889Z,10.77
2019-02-11T13:30:19.071Z,13.27
2019-02-11T13:32:48.378Z,13.43
2019-02-11T13:35:17.697Z,10.37
2019-02-11T13:37:47.094Z,12.80
2019-02-11T13:40:16.362Z,8.83
2019-02-11T13:42:45.904Z,11.07
2019-02-11T13:45:16.790Z,10.77
2019-02-11T13:47:55.422Z,9.20
2019-02-11T13:50:21.730Z,11.07
2019-02-11T13:52:52.141Z,13.40
2019-02-11T13:55:21.483Z,7.97
2019-02-11T13:57:50.889Z,7.93
2019-02-11T14:00:40.725Z,15.50
2019-02-11T14:03:09.822Z,10.87
2019-02-11T14:05:38.976Z,8.13
2019-02-11T14:08:08.360Z,7.87
2019-02-11T14:10:37.504Z,8.17
2019-02-11T14:13:06.959Z,13.27
2019-02-11T14:15:36.000Z,11.63
2019-02-11T14:18:12.978Z,9.13
2019-02-11T14:20:37.925Z,9.97
2019-02-11T14:23:07.055Z,9.70
2019-02-11T14:25:44.414Z,11.97
2019-02-11T14:28:07.083Z,12.33
2019-02-11T14:30:36.167Z,8.97
2019-02-11T14:33:05.545Z,10.50
2019-02-11T14:35:34.619Z,8.60
2019-02-11T14:38:05.904Z,8.63
2019-02-11T14:40:35.552Z,15.20
2019-02-11T14:43:04.672Z,10.37
2019-02-11T14:45:33.798Z,14.93
2019-02-11T14:48:02.857Z,10.93
2019-02-11T14:50:31.892Z,11.27
2019-02-11T14:53:00.973Z,11.97
2019-02-11T14:55:30.152Z,10.07
2019-02-11T14:57:59.165Z,11.90
2019-02-11T15:00:28.154Z,12.77
2019-02-11T15:02:57.540Z,11.47
2019-02-11T15:05:26.810Z,11.00
2019-02-11T15:07:55.759Z,30.80
2019-02-11T15:10:24.946Z,9.37
2019-02-11T15:12:53.902Z,52.27
2019-02-11T15:15:22.919Z,17.57
2019-02-11T15:17:54.160Z,16.43
2019-02-11T15:20:23.111Z,10.10
2019-02-11T15:22:52.075Z,12.77
2019-02-11T15:25:21.193Z,14.83
2019-02-11T15:27:50.122Z,12.43
2019-02-11T15:30:19.663Z,11.00
2019-02-11T15:32:48.669Z,9.73
2019-02-11T15:35:20.263Z,11.00
2019-02-11T15:37:49.241Z,12.50
2019-02-11T15:40:24.365Z,14.07
2019-02-11T15:42:53.608Z,26.20
2019-02-11T15:45:22.549Z,22.63
2019-02-11T15:47:51.578Z,11.80
2019-02-11T15:50:20.585Z,9.23
2019-02-11T15:52:49.640Z,22.83
2019-02-11T15:55:19.097Z,10.80
2019-02-11T15:57:48.143Z,9.53
2019-02-11T16:00:19.062Z,9.60
2019-02-11T16:02:48.234Z,13.33
2019-02-11T16:05:17.673Z,34.87
2019-02-11T16:07:46.831Z,20.10
2019-02-11T16:10:18.112Z,55.83
2019-02-11T16:12:47.226Z,45.93
2019-02-11T16:15:16.318Z,8.80
2019-02-11T16:17:45.283Z,16.70
2019-02-11T16:20:15.011Z,18.90
2019-02-11T16:22:44.002Z,11.67
2019-02-11T16:25:13.959Z,13.63
2019-02-11T16:27:43.007Z,9.07
2019-02-11T16:30:14.423Z,5.73
2019-02-11T16:32:44.034Z,4.63
2019-02-11T16:35:13.750Z,6.90
2019-02-11T16:37:42.688Z,12.00
2019-02-11T16:40:14.548Z,5.60
2019-02-11T16:42:44.171Z,9.67
2019-02-11T16:45:13.314Z,4.17
2019-02-11T16:47:42.467Z,11.07
2019-02-11T16:50:11.563Z,7.90
2019-02-11T16:52:40.478Z,6.80
2019-02-11T16:55:09.710Z,5.93
2019-02-11T16:57:38.770Z,2.40
2019-02-11T17:00:10.447Z,5.07
2019-02-11T17:02:39.375Z,4.77
2019-02-11T17:05:10.163Z,3.27
2019-02-11T17:07:42.042Z,2.27
2019-02-11T17:10:11.086Z,4.77
2019-02-11T17:12:40.274Z,2.73
2019-02-11T17:15:11.628Z,2.77
2019-02-11T17:17:40.646Z,3.50
2019-02-11T17:20:10.551Z,2.40
2019-02-11T17:22:39.634Z,3.10
2019-02-11T17:25:09.180Z,3.07
2019-02-11T17:27:38.223Z,2.23
2019-02-11T17:30:10.242Z,3.43
2019-02-11T17:32:39.313Z,4.40
2019-02-11T17:35:08.789Z,1.80
2019-02-11T17:37:37.823Z,3.03
2019-02-11T17:40:08.005Z,3.03
2019-02-11T17:42:37.178Z,2.37
2019-02-11T17:45:08.310Z,1.80
2019-02-11T17:47:37.327Z,1.70
2019-02-11T17:50:07.650Z,3.70
2019-02-11T17:52:36.884Z,9.80
2019-02-11T17:55:06.785Z,22.27
2019-02-11T17:57:35.810Z,20.83
2019-02-11T18:00:06.586Z,20.43
2019-02-11T18:02:43.947Z,24.73
2019-02-11T18:05:13.248Z,16.03
2019-02-11T18:07:42.636Z,9.80
2019-02-11T18:10:11.979Z,3.17
2019-02-11T18:12:40.942Z,8.63
2019-02-11T18:15:10.646Z,2.87
2019-02-11T18:17:39.591Z,10.60
2019-02-11T18:20:08.721Z,15.30
2019-02-11T18:22:37.995Z,15.43
2019-02-11T18:25:07.132Z,31.60
2019-02-11T18:27:36.373Z,37.30
2019-02-11T18:30:08.475Z,23.00
2019-02-11T18:32:37.867Z,7.17
2019-02-11T18:35:08.244Z,20.17
2019-02-11T18:37:37.188Z,6.33
2019-02-11T18:40:07.576Z,7.23
2019-02-11T18:42:36.911Z,9.20
2019-02-11T18:45:07.303Z,17.70
2019-02-11T18:47:36.586Z,54.63
2019-02-11T18:50:06.508Z,47.10
2019-02-11T18:52:35.476Z,5.70
2019-02-11T18:55:04.939Z,21.77
2019-02-11T18:57:33.911Z,4.30
2019-02-11T19:00:03.256Z,4.27
2019-02-11T19:02:32.251Z,4.97
2019-02-11T19:05:01.251Z,26.73
2019-02-11T19:07:30.383Z,5.20
2019-02-11T19:10:00.443Z,5.20
2019-02-11T19:12:29.426Z,20.17
2019-02-11T19:14:58.460Z,5.00
2019-02-11T19:17:27.644Z,7.27
2019-02-11T19:19:57.031Z,4.53
2019-02-11T19:22:26.047Z,2.80
2019-02-11T19:24:55.319Z,5.23
2019-02-11T19:27:24.239Z,5.87
2019-02-11T19:29:53.247Z,4.23
2019-02-11T19:32:22.287Z,11.43
2019-02-11T19:34:59.757Z,5.73
2019-02-11T19:37:28.806Z,12.27
2019-02-11T19:39:57.754Z,15.00
2019-02-11T19:42:26.765Z,6.30
2019-02-11T19:44:56.145Z,4.87
2019-02-11T19:47:25.140Z,9.70
2019-02-11T19:49:54.167Z,8.23
2019-02-11T19:52:23.229Z,9.17
2019-02-11T19:54:52.276Z,6.87
2019-02-11T19:57:21.293Z,11.63
2019-02-11T19:59:50.219Z,9.23
2019-02-11T20:02:19.253Z,6.13
2019-02-11T20:04:48.493Z,23.67
2019-02-11T20:07:17.543Z,55.30
2019-02-11T20:09:46.495Z,17.70
2019-02-11T20:12:15.747Z,11.70
2019-02-11T20:14:44.687Z,10.20
2019-02-11T20:17:13.988Z,10.40
2019-02-11T20:19:43.206Z,13.97
2019-02-11T20:22:12.207Z,10.07
2019-02-11T20:24:41.408Z,12.73
2019-02-11T20:27:10.434Z,11.77
2019-02-11T20:29:39.390Z,10.83
2019-02-11T20:32:08.439Z,13.30
2019-02-11T20:34:37.667Z,11.97
2019-02-11T20:37:06.746Z,7.67
2019-02-11T20:39:35.688Z,12.10
2019-02-11T20:42:05.492Z,9.33
2019-02-11T20:44:34.836Z,11.87
2019-02-11T20:47:04.944Z,11.60
2019-02-11T20:49:34.232Z,13.13
2019-02-11T20:52:03.652Z,10.93
2019-02-11T20:54:32.815Z,10.23
2019-02-11T20:57:02.304Z,15.10
2019-02-11T20:59:31.315Z,17.63
2019-02-11T21:02:00.291Z,13.80
2019-02-11T21:04:29.494Z,15.17
2019-02-11T21:06:58.458Z,15.17
2019-02-11T21:09:27.428Z,13.23
2019-02-11T21:11:56.670Z,16.47
2019-02-11T21:14:25.624Z,17.20
2019-02-11T21:16:54.611Z,19.03
2019-02-11T21:19:23.684Z,13.70
2019-02-11T21:21:52.655Z,17.30
2019-02-11T21:24:22.144Z,11.50
2019-02-11T21:26:51.094Z,17.43
2019-02-11T21:29:20.098Z,12.30
2019-02-11T21:31:49.117Z,12.30
2019-02-11T21:34:18.116Z,10.63
2019-02-11T21:36:47.091Z,15.90
2019-02-11T21:39:16.037Z,19.03
2019-02-11T21:41:45.270Z,9.27
2019-02-11T21:44:14.206Z,13.17
2019-02-11T21:46:43.231Z,13.07
2019-02-11T21:49:12.203Z,18.53
2019-02-11T21:51:41.219Z,14.20
2019-02-11T21:54:10.181Z,11.97
2019-02-11T21:56:40.441Z,10.90
2019-02-11T21:59:09.443Z,12.30
2019-02-11T22:01:38.394Z,14.67
2019-02-11T22:04:07.372Z,11.63
2019-02-11T22:06:36.337Z,13.20
2019-02-11T22:09:06.339Z,20.50
2019-02-11T22:11:35.618Z,13.53
2019-02-11T22:14:04.720Z,14.27
2019-02-11T22:16:33.670Z,14.60
2019-02-11T22:19:02.674Z,11.83
2019-02-11T22:21:32.355Z,13.33
2019-02-11T22:24:01.635Z,11.87
2019-02-11T22:26:30.627Z,12.60
2019-02-11T22:28:59.579Z,16.70
2019-02-11T22:31:28.499Z,13.70
2019-02-11T22:33:57.516Z,12.03
2019-02-11T22:36:26.534Z,11.43
2019-02-11T22:38:55.533Z,16.33
2019-02-11T22:41:24.587Z,11.13
2019-02-11T22:43:53.543Z,10.30
2019-02-11T22:46:23.429Z,10.27
2019-02-11T22:48:52.400Z,11.93
2019-02-11T22:51:21.701Z,10.83
2019-02-11T22:53:50.706Z,10.60
2019-02-11T22:56:19.668Z,10.30
2019-02-11T22:58:48.855Z,8.00
2019-02-11T23:01:18.503Z,8.67
2019-02-11T23:03:47.604Z,8.53
2019-02-11T23:06:16.683Z,8.87
2019-02-11T23:08:46.106Z,9.50
2019-02-11T23:11:15.170Z,11.30
2019-02-11T23:13:44.127Z,12.27
2019-02-11T23:16:13.779Z,7.03
2019-02-11T23:18:42.808Z,9.07
2019-02-11T23:21:11.806Z,9.43
2019-02-11T23:23:40.827Z,8.80
2019-02-11T23:26:10.055Z,10.87
2019-02-11T23:28:39.054Z,7.70
2019-02-11T23:31:08.064Z,4.47
2019-02-11T23:33:37.141Z,11.30
2019-02-11T23:36:06.110Z,7.63
2019-02-11T23:38:35.079Z,7.90
2019-02-11T23:41:04.822Z,7.63
2019-02-11T23:43:33.762Z,12.80
2019-02-11T23:46:02.821Z,8.03
2019-02-11T23:48:31.770Z,12.73
2019-02-11T23:51:00.883Z,8.03
2019-02-11T23:53:29.884Z,7.63
2019-02-11T23:55:58.987Z,7.43
2019-02-11T23:58:27.945Z,7.43
